createdAt,value
2022-09-03T00:01:55.161Z,14.60
2022-09-03T00:04:30.056Z,14.60
2022-09-03T00:07:02.925Z,14.56
2022-09-03T00:09:42.572Z,14.56
2022-09-03T00:12:29.159Z,14.49
2022-09-03T00:15:02.125Z,14.47
2022-09-03T00:17:44.433Z,14.47
2022-09-03T00:20:20.189Z,14.40
2022-09-03T00:22:50.875Z,14.37
2022-09-03T00:25:34.780Z,14.35
2022-09-03T00:28:05.275Z,14.34
2022-09-03T00:30:33.774Z,14.31
2022-09-03T00:33:09.513Z,14.32
2022-09-03T00:35:41.848Z,14.33
2022-09-03T00:38:09.420Z,14.30
2022-09-03T00:41:00.306Z,14.27
2022-09-03T00:43:51.236Z,14.25
2022-09-03T00:46:33.916Z,14.29
2022-09-03T00:49:28.444Z,14.35
2022-09-03T00:52:01.881Z,14.37
2022-09-03T00:54:43.067Z,14.40
2022-09-03T00:57:33.110Z,14.37
2022-09-03T01:00:05.813Z,14.35
2022-09-03T01:02:59.999Z,14.33
2022-09-03T01:05:38.405Z,14.31
2022-09-03T01:08:23.913Z,14.30
2022-09-03T01:10:56.517Z,14.35
2022-09-03T01:13:33.997Z,14.37
2022-09-03T01:16:29.183Z,14.38
2022-09-03T01:19:25.492Z,14.33
2022-09-03T01:22:05.295Z,14.32
2022-09-03T01:24:43.678Z,14.23
2022-09-03T01:27:47.559Z,14.21
2022-09-03T01:30:18.541Z,14.23
2022-09-03T01:32:49.425Z,14.21
2022-09-03T01:35:35.129Z,14.15
2022-09-03T01:38:20.794Z,14.11
2022-09-03T01:41:30.225Z,14.04
2022-09-03T01:44:22.321Z,13.96
2022-09-03T01:46:58.622Z,13.98
2022-09-03T01:49:38.630Z,14.00
2022-09-03T01:52:15.381Z,14.05
2022-09-03T01:55:13.934Z,14.01
2022-09-03T01:57:56.208Z,13.98
2022-09-03T02:00:23.088Z,13.96
2022-09-03T02:02:51.829Z,13.98
2022-09-03T02:05:23.772Z,14.01
2022-09-03T02:08:02.951Z,14.04
2022-09-03T02:10:45.424Z,14.08
2022-09-03T02:13:21.269Z,14.08
2022-09-03T02:15:50.275Z,14.12
2022-09-03T02:18:21.067Z,14.13
2022-09-03T02:20:49.255Z,14.21
2022-09-03T02:23:16.881Z,14.25
2022-09-03T02:25:47.793Z,14.27
2022-09-03T02:28:17.142Z,14.23
2022-09-03T02:30:45.287Z,14.25
2022-09-03T02:33:12.262Z,14.28
2022-09-03T02:35:40.742Z,14.29
2022-09-03T02:38:25.773Z,14.32
2022-09-03T02:40:54.498Z,14.31
2022-09-03T02:43:31.171Z,14.33
2022-09-03T02:46:04.206Z,14.38
2022-09-03T02:48:31.030Z,14.41
2022-09-03T02:50:57.604Z,14.43
2022-09-03T02:53:24.118Z,14.47
2022-09-03T02:55:50.726Z,14.48
2022-09-03T02:58:17.444Z,14.47
2022-09-03T03:00:44.836Z,14.47
2022-09-03T03:03:11.364Z,14.44
2022-09-03T03:05:47.098Z,14.43
2022-09-03T03:08:15.398Z,14.44
2022-09-03T03:10:45.094Z,14.45
2022-09-03T03:13:12.211Z,14.46
2022-09-03T03:15:38.968Z,14.47
2022-09-03T03:18:06.046Z,14.45
2022-09-03T03:20:33.020Z,14.45
2022-09-03T03:23:02.558Z,14.45
2022-09-03T03:25:29.113Z,14.42
2022-09-03T03:27:57.086Z,14.42
2022-09-03T03:30:24.354Z,14.43
2022-09-03T03:32:53.555Z,14.43
2022-09-03T03:35:20.261Z,14.40
2022-09-03T03:37:46.830Z,14.42
2022-09-03T03:40:15.072Z,14.40
2022-09-03T03:42:42.414Z,14.41
2022-09-03T03:45:13.082Z,14.40
2022-09-03T03:47:39.585Z,14.41
2022-09-03T03:50:06.541Z,14.43
2022-09-03T03:52:33.126Z,14.43
2022-09-03T03:54:59.685Z,14.44
2022-09-03T03:57:26.449Z,14.40
2022-09-03T03:59:52.971Z,14.37
2022-09-03T04:02:19.615Z,14.38
2022-09-03T04:04:46.209Z,14.34
2022-09-03T04:07:12.754Z,14.30
2022-09-03T04:09:39.289Z,14.24
2022-09-03T04:12:08.611Z,14.18
2022-09-03T04:14:35.448Z,14.05
2022-09-03T04:17:03.223Z,13.98
2022-09-03T04:19:30.325Z,13.96
2022-09-03T04:21:56.882Z,13.91
2022-09-03T04:24:23.957Z,13.85
2022-09-03T04:26:50.699Z,13.82
2022-09-03T04:29:18.389Z,13.84
2022-09-03T04:32:04.979Z,13.85
2022-09-03T04:34:31.559Z,13.81
2022-09-03T04:36:59.164Z,13.80
2022-09-03T04:39:26.246Z,13.84
2022-09-03T04:41:52.889Z,13.87
2022-09-03T04:44:19.471Z,13.89
2022-09-03T04:46:47.949Z,13.87
2022-09-03T04:49:15.141Z,13.88
2022-09-03T04:51:42.159Z,13.95
2022-09-03T04:54:10.292Z,13.99
2022-09-03T04:56:40.231Z,14.01
2022-09-03T04:59:09.625Z,14.03
2022-09-03T05:01:38.584Z,14.03
2022-09-03T05:04:06.771Z,14.07
2022-09-03T05:06:34.473Z,14.09
2022-09-03T05:09:01.349Z,14.12
2022-09-03T05:11:29.300Z,14.18
2022-09-03T05:13:58.446Z,14.21
2022-09-03T05:16:25.594Z,14.21
2022-09-03T05:18:54.144Z,14.19
2022-09-03T05:21:21.371Z,14.14
2022-09-03T05:23:50.782Z,14.13
2022-09-03T05:26:26.033Z,14.17
2022-09-03T05:28:59.043Z,14.14
2022-09-03T05:31:28.343Z,14.17
2022-09-03T05:33:58.629Z,14.19
2022-09-03T05:36:28.531Z,14.14
2022-09-03T05:38:55.998Z,14.09
2022-09-03T05:41:23.579Z,14.06
2022-09-03T05:43:53.499Z,14.08
2022-09-03T05:46:20.102Z,14.10
2022-09-03T05:48:46.707Z,14.06
2022-09-03T05:51:16.579Z,14.08
2022-09-03T05:53:46.045Z,14.13
2022-09-03T05:56:18.121Z,14.19
2022-09-03T05:58:52.836Z,14.24
2022-09-03T06:01:23.718Z,14.30
2022-09-03T06:03:56.115Z,14.34
2022-09-03T06:06:25.627Z,14.36
2022-09-03T06:08:58.216Z,14.35
2022-09-03T06:11:29.761Z,14.36
2022-09-03T06:13:57.635Z,14.39
2022-09-03T06:16:31.464Z,14.40
2022-09-03T06:18:59.922Z,14.32
2022-09-03T06:21:27.134Z,14.24
2022-09-03T06:24:00.066Z,14.26
2022-09-03T06:26:31.025Z,14.27
2022-09-03T06:28:58.075Z,14.28
2022-09-03T06:31:25.537Z,14.30
2022-09-03T06:33:54.755Z,14.30
2022-09-03T06:36:22.991Z,14.25
2022-09-03T06:38:53.131Z,14.09
2022-09-03T06:41:25.060Z,14.06
2022-09-03T06:44:03.492Z,14.14
2022-09-03T06:46:35.447Z,14.15
2022-09-03T06:49:02.762Z,14.16
2022-09-03T06:51:32.058Z,14.21
2022-09-03T06:54:10.541Z,14.21
2022-09-03T06:56:40.627Z,14.12
2022-09-03T06:59:15.277Z,14.11
2022-09-03T07:01:45.450Z,14.15
2022-09-03T07:04:13.796Z,14.19
2022-09-03T07:06:42.614Z,14.20
2022-09-03T07:09:10.093Z,14.18
2022-09-03T07:11:37.291Z,14.20
2022-09-03T07:14:05.272Z,14.25
2022-09-03T07:16:37.090Z,14.29
2022-09-03T07:19:05.319Z,14.37
2022-09-03T07:21:34.470Z,14.43
2022-09-03T07:24:00.963Z,14.39
2022-09-03T07:26:30.547Z,14.38
2022-09-03T07:28:57.674Z,14.39
2022-09-03T07:31:27.183Z,14.40
2022-09-03T07:33:55.751Z,14.40
2022-09-03T07:36:23.945Z,14.42
2022-09-03T07:38:51.290Z,14.47
2022-09-03T07:41:28.493Z,14.48
2022-09-03T07:43:55.739Z,14.52
2022-09-03T07:46:27.414Z,14.56
2022-09-03T07:48:58.853Z,14.59
2022-09-03T07:51:28.434Z,14.66
2022-09-03T07:54:00.688Z,14.72
2022-09-03T07:56:28.137Z,14.78
2022-09-03T07:58:57.459Z,14.86
2022-09-03T08:01:25.593Z,14.92
2022-09-03T08:03:54.221Z,14.99
2022-09-03T08:06:22.990Z,15.01
2022-09-03T08:08:54.295Z,14.99
2022-09-03T08:11:22.052Z,14.96
2022-09-03T08:13:54.811Z,15.00
2022-09-03T08:16:21.386Z,15.08
2022-09-03T08:18:47.968Z,15.16
2022-09-03T08:21:17.411Z,15.18
2022-09-03T08:23:46.011Z,15.14
2022-09-03T08:26:13.795Z,15.15
2022-09-03T08:28:40.739Z,15.18
2022-09-03T08:31:19.692Z,15.25
2022-09-03T08:33:51.390Z,15.34
2022-09-03T08:36:22.872Z,15.42
2022-09-03T08:38:50.452Z,15.44
2022-09-03T08:41:20.872Z,15.45
2022-09-03T08:44:14.613Z,15.37
2022-09-03T08:46:51.502Z,15.39
2022-09-03T08:49:41.739Z,15.43
2022-09-03T08:52:22.046Z,15.52
2022-09-03T08:54:51.625Z,15.56
2022-09-03T08:57:20.943Z,15.64
2022-09-03T08:59:52.018Z,15.71
2022-09-03T09:02:31.300Z,15.70
2022-09-03T09:05:17.439Z,15.62
2022-09-03T09:07:48.728Z,15.64
2022-09-03T09:10:36.724Z,15.63
2022-09-03T09:13:16.367Z,15.64
2022-09-03T09:16:04.085Z,15.66
2022-09-03T09:18:33.834Z,15.70
2022-09-03T09:21:09.454Z,15.75
2022-09-03T09:23:48.304Z,15.74
2022-09-03T09:26:21.525Z,15.69
2022-09-03T09:29:02.182Z,15.69
2022-09-03T09:31:31.085Z,15.65
2022-09-03T09:34:05.772Z,15.64
2022-09-03T09:36:47.065Z,15.68
2022-09-03T09:39:16.075Z,15.78
2022-09-03T09:41:44.666Z,15.90
2022-09-03T09:44:20.414Z,15.99
2022-09-03T09:46:50.285Z,16.07
2022-09-03T09:49:35.894Z,16.13
2022-09-03T09:52:08.837Z,16.15
2022-09-03T09:54:35.508Z,16.17
2022-09-03T09:57:05.034Z,16.21
2022-09-03T09:59:33.596Z,16.26
2022-09-03T10:02:09.772Z,16.29
2022-09-03T10:04:38.871Z,16.36
2022-09-03T10:07:19.693Z,16.41
2022-09-03T10:09:46.620Z,16.46
2022-09-03T10:12:28.502Z,16.48
2022-09-03T10:15:28.035Z,16.50
2022-09-03T10:18:39.129Z,16.49
2022-09-03T10:21:18.225Z,16.51
2022-09-03T10:23:56.119Z,16.54
2022-09-03T10:26:30.717Z,16.45
2022-09-03T10:29:05.834Z,16.40
2022-09-03T10:32:13.692Z,16.38
2022-09-03T10:34:59.537Z,16.33
2022-09-03T10:37:44.336Z,16.34
2022-09-03T10:40:34.977Z,16.37
2022-09-03T10:43:33.218Z,16.43
2022-09-03T10:46:14.008Z,16.47
2022-09-03T10:48:43.306Z,16.49
2022-09-03T10:51:34.156Z,16.51
2022-09-03T10:54:29.044Z,16.48
2022-09-03T10:57:19.966Z,16.50
2022-09-03T11:00:10.452Z,16.51
2022-09-03T11:03:01.493Z,16.56
2022-09-03T11:06:03.052Z,16.60
2022-09-03T11:09:04.467Z,16.48
2022-09-03T11:12:21.552Z,16.46
2022-09-03T11:15:03.816Z,16.42
2022-09-03T11:17:38.244Z,16.40
2022-09-03T11:20:17.041Z,16.40
2022-09-03T11:22:46.162Z,16.44
2022-09-03T11:25:14.921Z,16.45
2022-09-03T11:27:41.496Z,16.45
2022-09-03T11:30:14.787Z,16.44
2022-09-03T11:32:55.918Z,16.43
2022-09-03T11:35:31.602Z,16.50
2022-09-03T11:38:04.611Z,16.55
2022-09-03T11:40:56.902Z,16.60
2022-09-03T11:43:34.266Z,16.59
2022-09-03T11:46:14.840Z,16.66
2022-09-03T11:48:47.423Z,16.71
2022-09-03T11:51:33.064Z,16.75
2022-09-03T11:54:01.317Z,16.79
2022-09-03T11:56:29.388Z,16.77
2022-09-03T11:59:14.615Z,16.80
2022-09-03T12:01:53.323Z,16.79
2022-09-03T12:04:34.679Z,16.79
2022-09-03T12:07:35.852Z,16.81
2022-09-03T12:10:11.228Z,16.80
2022-09-03T12:12:46.286Z,16.78
2022-09-03T12:15:40.179Z,16.81
2022-09-03T12:18:22.525Z,16.81
2022-09-03T12:21:00.955Z,16.82
2022-09-03T12:23:30.806Z,16.82
2022-09-03T12:26:08.637Z,16.80
2022-09-03T12:28:37.675Z,16.84
2022-09-03T12:31:23.552Z,16.89
2022-09-03T12:34:00.346Z,16.88
2022-09-03T12:36:37.782Z,16.81
2022-09-03T12:42:22.496Z,16.71
2022-09-03T12:44:49.836Z,16.67
2022-09-03T12:47:38.158Z,16.71
2022-09-03T12:50:11.243Z,16.69
2022-09-03T12:52:54.312Z,16.72
2022-09-03T12:55:42.512Z,16.69
2022-09-03T12:58:18.099Z,16.69
2022-09-03T13:00:50.024Z,16.72
2022-09-03T13:03:26.475Z,16.77
2022-09-03T13:05:59.537Z,16.86
2022-09-03T13:08:39.054Z,16.86
2022-09-03T13:11:06.121Z,16.83
2022-09-03T13:13:37.169Z,16.86
2022-09-03T13:16:19.144Z,16.83
2022-09-03T13:18:51.395Z,16.84
2022-09-03T13:21:34.322Z,16.84
2022-09-03T13:24:19.904Z,16.86
2022-09-03T13:27:29.021Z,16.77
2022-09-03T13:30:04.845Z,16.78
2022-09-03T13:33:00.921Z,16.84
2022-09-03T13:35:42.621Z,16.85
2022-09-03T13:38:18.316Z,16.90
2022-09-03T13:41:06.821Z,16.93
2022-09-03T13:43:33.625Z,16.87
2022-09-03T13:46:05.577Z,16.86
2022-09-03T13:49:01.702Z,16.92
2022-09-03T13:51:40.029Z,17.02
2022-09-03T13:54:09.954Z,17.09
2022-09-03T13:56:56.326Z,17.11
2022-09-03T14:00:10.414Z,17.14
2022-09-03T14:02:46.627Z,17.12
2022-09-03T14:05:26.591Z,17.16
2022-09-03T14:07:58.967Z,17.14
2022-09-03T14:10:35.194Z,17.18
2022-09-03T14:13:07.553Z,17.24
2022-09-03T14:15:45.554Z,17.28
2022-09-03T14:19:03.514Z,17.34
2022-09-03T14:21:45.237Z,17.41
2022-09-03T14:24:11.781Z,17.43
2022-09-03T14:26:51.380Z,17.44
2022-09-03T14:29:20.910Z,17.46
2022-09-03T14:32:05.778Z,17.47
2022-09-03T14:34:52.304Z,17.45
2022-09-03T14:37:49.109Z,17.43
2022-09-03T14:40:27.698Z,17.40
2022-09-03T14:43:31.951Z,17.39
2022-09-03T14:46:18.202Z,17.46
2022-09-03T14:49:21.981Z,17.53
2022-09-03T14:52:05.842Z,17.59
2022-09-03T14:54:41.491Z,17.67
2022-09-03T14:57:17.057Z,17.71
2022-09-03T15:00:19.799Z,17.74
2022-09-03T15:03:08.858Z,17.79
2022-09-03T15:06:03.144Z,17.79
2022-09-03T15:08:50.820Z,17.80
2022-09-03T15:11:24.166Z,17.68
2022-09-03T15:14:28.971Z,17.58
2022-09-03T15:17:01.509Z,17.53
2022-09-03T15:19:46.280Z,17.46
2022-09-03T15:22:30.886Z,17.37
2022-09-03T15:25:16.080Z,17.27
2022-09-03T15:28:14.855Z,17.18
2022-09-03T15:30:47.945Z,17.22
2022-09-03T15:33:37.085Z,17.19
2022-09-03T15:36:12.692Z,17.15
2022-09-03T15:39:00.691Z,17.22
2022-09-03T15:41:45.313Z,17.22
2022-09-03T15:44:19.666Z,17.25
2022-09-03T15:47:13.820Z,17.31
2022-09-03T15:50:01.982Z,17.33
2022-09-03T15:52:28.484Z,17.25
2022-09-03T15:55:31.984Z,17.18
2022-09-03T15:58:09.906Z,17.18
2022-09-03T16:01:00.103Z,17.14
2022-09-03T16:03:35.899Z,17.09
2022-09-03T16:06:07.239Z,17.06
2022-09-03T16:08:50.521Z,17.07
2022-09-03T16:11:21.589Z,16.98
2022-09-03T16:14:01.700Z,16.87
2022-09-03T16:17:01.222Z,16.82
2022-09-03T16:19:48.694Z,16.82
2022-09-03T16:22:55.628Z,16.72
2022-09-03T16:25:44.358Z,16.63
2022-09-03T16:28:17.287Z,16.58
2022-09-03T16:30:59.706Z,16.57
2022-09-03T16:33:44.988Z,16.56
2022-09-03T16:36:11.549Z,16.62
2022-09-03T16:38:54.839Z,16.67
2022-09-03T16:41:44.133Z,16.68
2022-09-03T16:44:32.648Z,16.64
2022-09-03T16:47:02.361Z,16.61
2022-09-03T16:49:46.602Z,16.50
2022-09-03T16:52:39.008Z,16.42
2022-09-03T16:55:44.032Z,16.30
2022-09-03T16:58:27.629Z,16.21
2022-09-03T17:01:12.430Z,16.15
2022-09-03T17:04:36.758Z,16.03
2022-09-03T17:07:25.106Z,15.93
2022-09-03T17:09:56.067Z,15.84
2022-09-03T17:12:30.991Z,15.77
2022-09-03T17:15:36.038Z,15.70
2022-09-03T17:18:14.244Z,15.64
2022-09-03T17:20:49.466Z,15.55
2022-09-03T17:23:31.148Z,15.48
2022-09-03T17:26:22.322Z,15.43
2022-09-03T17:28:58.869Z,15.35
2022-09-03T17:31:39.262Z,15.27
2022-09-03T17:34:43.975Z,15.17
2022-09-03T17:37:31.868Z,15.11
2022-09-03T17:40:19.807Z,15.00
2022-09-03T17:42:55.231Z,14.96
2022-09-03T17:45:34.154Z,14.86
2022-09-03T17:48:16.971Z,14.80
2022-09-03T17:51:04.218Z,14.74
2022-09-03T17:53:44.062Z,14.72
2022-09-03T17:56:29.362Z,14.67
2022-09-03T17:59:10.728Z,14.66
2022-09-03T18:01:48.230Z,14.59
2022-09-03T18:04:39.254Z,14.52
2022-09-03T18:07:05.748Z,14.49
2022-09-03T18:09:56.118Z,14.46
2022-09-03T18:12:43.823Z,14.38
2022-09-03T18:15:28.096Z,14.35
2022-09-03T18:18:27.441Z,14.32
2022-09-03T18:21:25.252Z,14.30
2022-09-03T18:24:51.163Z,14.26
2022-09-03T18:27:46.009Z,14.24
2022-09-03T18:30:33.901Z,14.23
2022-09-03T18:33:19.415Z,14.24
2022-09-03T18:36:05.938Z,14.20
2022-09-03T18:38:54.200Z,14.14
2022-09-03T18:41:59.706Z,14.05
2022-09-03T18:45:19.815Z,13.99
2022-09-03T18:48:29.065Z,13.88
2022-09-03T18:51:42.049Z,13.81
2022-09-03T18:55:06.242Z,13.74
2022-09-03T18:58:38.249Z,13.68
2022-09-03T19:01:51.433Z,13.60
2022-09-03T19:05:12.892Z,13.54
2022-09-03T19:08:35.704Z,13.46
2022-09-03T19:11:46.428Z,13.35
2022-09-03T19:14:53.794Z,13.31
2022-09-03T19:17:55.409Z,13.24
2022-09-03T19:20:48.923Z,13.21
2022-09-03T19:23:33.972Z,13.20
2022-09-03T19:26:31.230Z,13.19
2022-09-03T19:29:22.562Z,13.12
2022-09-03T19:32:19.720Z,13.06
2022-09-03T19:35:13.939Z,13.04
2022-09-03T19:38:17.891Z,12.96
2022-09-03T19:41:29.448Z,12.89
2022-09-03T19:44:36.683Z,12.80
2022-09-03T19:47:23.553Z,12.74
2022-09-03T19:50:18.607Z,12.69
2022-09-03T19:53:11.786Z,12.65
2022-09-03T19:56:07.584Z,12.55
2022-09-03T19:58:57.065Z,12.44
2022-09-03T20:01:44.189Z,12.34
2022-09-03T20:04:34.026Z,12.28
2022-09-03T20:07:23.692Z,12.21
2022-09-03T20:10:09.974Z,12.14
2022-09-03T20:12:40.372Z,12.10
2022-09-03T20:15:08.929Z,12.04
2022-09-03T20:17:46.714Z,11.99
2022-09-03T20:20:32.453Z,11.95
2022-09-03T20:23:12.957Z,11.91
2022-09-03T20:25:48.506Z,11.84
2022-09-03T20:29:04.574Z,11.76
2022-09-03T20:32:03.022Z,11.70
2022-09-03T20:34:53.994Z,11.70
2022-09-03T20:37:44.406Z,11.66
2022-09-03T20:40:45.483Z,11.59
2022-09-03T20:43:11.974Z,11.55
2022-09-03T20:45:57.177Z,11.53
2022-09-03T20:48:38.553Z,11.54
2022-09-03T20:51:13.113Z,11.43
2022-09-03T20:53:49.220Z,11.41
2022-09-03T20:56:39.735Z,11.30
2022-09-03T20:59:14.104Z,11.31
2022-09-03T21:01:52.372Z,11.30
2022-09-03T21:04:41.476Z,11.27
2022-09-03T21:07:14.044Z,11.17
2022-09-03T21:09:56.739Z,11.20
2022-09-03T21:12:42.031Z,11.14
2022-09-03T21:15:20.695Z,11.07
2022-09-03T21:17:56.777Z,11.00
2022-09-03T21:20:32.306Z,10.95
2022-09-03T21:23:01.706Z,10.98
2022-09-03T21:25:42.277Z,10.97
2022-09-03T21:28:40.427Z,10.96
2022-09-03T21:31:22.375Z,10.87
2022-09-03T21:33:55.801Z,10.79
2022-09-03T21:36:33.902Z,10.74
2022-09-03T21:39:13.035Z,10.65
2022-09-03T21:41:40.425Z,10.59
2022-09-03T21:44:11.782Z,10.54
2022-09-03T21:46:47.300Z,10.48
2022-09-03T21:49:21.177Z,10.43
2022-09-03T21:52:06.327Z,10.36
2022-09-03T21:54:34.630Z,10.35
2022-09-03T21:57:22.111Z,10.29
2022-09-03T22:00:09.225Z,10.22
2022-09-03T22:02:36.715Z,10.17
2022-09-03T22:05:04.439Z,10.14
2022-09-03T22:07:46.118Z,10.13
2022-09-03T22:10:37.890Z,10.18
2022-09-03T22:13:36.750Z,10.11
2022-09-03T22:16:14.999Z,10.03
2022-09-03T22:18:41.535Z,9.98
2022-09-03T22:21:28.148Z,9.92
2022-09-03T22:24:23.339Z,9.86
2022-09-03T22:27:12.217Z,9.84
2022-09-03T22:30:05.009Z,9.79
2022-09-03T22:32:53.412Z,9.78
2022-09-03T22:35:23.032Z,9.79
2022-09-03T22:38:10.956Z,9.75
2022-09-03T22:41:00.388Z,9.72
2022-09-03T22:43:38.664Z,9.65
2022-09-03T22:46:14.545Z,9.58
2022-09-03T22:48:50.191Z,9.52
2022-09-03T22:51:21.599Z,9.50
2022-09-03T22:54:21.178Z,9.46
2022-09-03T22:56:48.594Z,9.44
2022-09-03T22:59:46.046Z,9.42
2022-09-03T23:02:21.987Z,9.41
2022-09-03T23:04:57.963Z,9.44
2022-09-03T23:07:48.188Z,9.43
2022-09-03T23:10:25.591Z,9.40
2022-09-03T23:13:14.406Z,9.45
2022-09-03T23:15:42.442Z,9.39
2022-09-03T23:18:21.449Z,9.35
2022-09-03T23:21:07.168Z,9.34
2022-09-03T23:23:38.934Z,9.39
2022-09-03T23:26:14.136Z,9.35
2022-09-03T23:28:47.257Z,9.30
2022-09-03T23:31:13.934Z,9.22
2022-09-03T23:33:40.511Z,9.23
2022-09-03T23:36:43.349Z,9.29
2022-09-03T23:39:43.625Z,9.20
2022-09-03T23:42:25.078Z,9.14
2022-09-03T23:45:02.894Z,9.11
2022-09-03T23:47:47.637Z,9.13
2022-09-03T23:50:25.361Z,9.13
2022-09-03T23:53:10.122Z,9.16
2022-09-03T23:56:01.536Z,9.16
2022-09-03T23:58:52.518Z,9.14
